createdAt,value
2022-08-05T00:01:35.928Z,55.07
2022-08-05T00:04:08.383Z,55.07
2022-08-05T00:06:37.080Z,55.46
2022-08-05T00:09:12.762Z,55.35
2022-08-05T00:11:48.804Z,55.67
2022-08-05T00:14:27.667Z,55.70
2022-08-05T00:16:58.014Z,56.04
2022-08-05T00:19:33.305Z,55.98
2022-08-05T00:22:11.775Z,56.07
2022-08-05T00:24:42.438Z,56.09
2022-08-05T00:27:28.542Z,56.36
2022-08-05T00:30:00.452Z,56.33
2022-08-05T00:32:31.669Z,56.51
2022-08-05T00:35:06.646Z,56.83
2022-08-05T00:37:51.159Z,56.85
2022-08-05T00:40:27.361Z,56.89
2022-08-05T00:43:01.745Z,56.94
2022-08-05T00:45:38.537Z,57.36
2022-08-05T00:48:10.196Z,57.34
2022-08-05T00:50:44.087Z,57.82
2022-08-05T00:53:59.959Z,57.72
2022-08-05T00:56:02.833Z,58.01
2022-08-05T00:58:31.459Z,58.11
2022-08-05T01:00:59.925Z,58.11
2022-08-05T01:03:30.929Z,58.33
2022-08-05T01:06:05.499Z,58.37
2022-08-05T01:08:43.184Z,58.75
2022-08-05T01:11:33.859Z,58.72
2022-08-05T01:14:16.332Z,58.85
2022-08-05T01:16:54.852Z,58.80
2022-08-05T01:19:46.331Z,59.03
2022-08-05T01:22:34.131Z,59.07
2022-08-05T01:25:02.292Z,59.44
2022-08-05T01:28:00.540Z,59.41
2022-08-05T01:30:35.050Z,59.57
2022-08-05T01:33:08.646Z,59.64
2022-08-05T01:35:52.239Z,59.79
2022-08-05T01:38:27.241Z,59.87
2022-08-05T01:41:00.034Z,60.06
2022-08-05T01:43:31.830Z,60.07
2022-08-05T01:46:07.190Z,59.96
2022-08-05T01:48:49.458Z,60.15
2022-08-05T01:51:19.707Z,60.13
2022-08-05T01:53:58.004Z,60.06
2022-08-05T01:58:09.771Z,60.15
2022-08-05T01:59:23.641Z,60.36
2022-08-05T02:01:55.578Z,60.37
2022-08-05T02:04:29.077Z,60.46
2022-08-05T02:06:59.187Z,60.42
2022-08-05T02:09:28.148Z,60.58
2022-08-05T02:12:14.041Z,60.63
2022-08-05T02:14:49.835Z,60.80
2022-08-05T02:18:28.686Z,60.80
2022-08-05T02:20:20.932Z,60.89
2022-08-05T02:23:03.283Z,60.93
2022-08-05T02:25:49.573Z,60.91
2022-08-05T02:28:29.059Z,60.99
2022-08-05T02:31:06.114Z,60.90
2022-08-05T02:33:41.014Z,61.07
2022-08-05T02:36:13.528Z,60.98
2022-08-05T02:38:53.259Z,61.09
2022-08-05T02:41:29.017Z,61.34
2022-08-05T02:44:11.891Z,61.39
2022-08-05T02:46:44.035Z,61.40
2022-08-05T02:49:37.079Z,61.62
2022-08-05T02:52:26.038Z,61.65
2022-08-05T02:55:05.139Z,61.81
2022-08-05T02:58:11.047Z,61.90
2022-08-05T03:00:25.273Z,61.97
2022-08-05T03:02:56.563Z,62.13
2022-08-05T03:06:56.734Z,62.02
2022-08-05T03:08:14.783Z,62.20
2022-08-05T03:11:01.311Z,62.16
2022-08-05T03:13:51.187Z,62.29
2022-08-05T03:16:22.829Z,62.32
2022-08-05T03:18:51.558Z,62.33
2022-08-05T03:21:22.598Z,62.39
2022-08-05T03:23:58.262Z,62.40
2022-08-05T03:26:31.918Z,62.48
2022-08-05T03:29:01.511Z,62.59
2022-08-05T03:31:55.469Z,62.55
2022-08-05T03:34:19.641Z,62.58
2022-08-05T03:36:52.935Z,62.61
2022-08-05T03:39:27.259Z,62.64
2022-08-05T03:41:57.120Z,62.78
2022-08-05T03:44:28.900Z,62.77
2022-08-05T03:46:57.339Z,62.89
2022-08-05T03:49:31.185Z,62.95
2022-08-05T03:52:49.296Z,62.99
2022-08-05T03:56:04.906Z,63.07
2022-08-05T03:58:15.522Z,63.22
2022-08-05T04:00:51.494Z,63.20
2022-08-05T04:03:28.479Z,63.15
2022-08-05T04:05:59.249Z,63.29
2022-08-05T04:08:36.427Z,63.15
2022-08-05T04:11:08.606Z,63.27
2022-08-05T04:13:51.376Z,63.29
2022-08-05T04:16:24.104Z,63.34
2022-08-05T04:18:54.761Z,63.27
2022-08-05T04:22:09.431Z,63.28
2022-08-05T04:24:19.107Z,63.33
2022-08-05T04:26:50.889Z,63.23
2022-08-05T04:29:21.007Z,63.21
2022-08-05T04:31:49.744Z,63.31
2022-08-05T04:34:32.839Z,63.14
2022-08-05T04:37:03.153Z,63.27
2022-08-05T04:39:32.414Z,63.17
2022-08-05T04:42:04.110Z,63.47
2022-08-05T04:44:32.391Z,63.16
2022-08-05T04:47:09.848Z,63.03
2022-08-05T04:50:02.086Z,63.00
2022-08-05T04:52:28.379Z,62.97
2022-08-05T04:54:57.283Z,63.11
2022-08-05T04:57:28.606Z,63.09
2022-08-05T04:59:58.625Z,62.90
2022-08-05T05:02:41.112Z,62.82
2022-08-05T05:05:16.737Z,62.86
2022-08-05T05:08:02.891Z,62.74
2022-08-05T05:10:33.831Z,62.80
2022-08-05T05:13:04.360Z,62.57
2022-08-05T05:15:56.866Z,62.38
2022-08-05T05:18:31.441Z,62.31
2022-08-05T05:21:05.540Z,62.08
2022-08-05T05:24:02.205Z,61.94
2022-08-05T05:26:28.768Z,61.37
2022-08-05T05:29:14.493Z,61.38
2022-08-05T05:31:46.489Z,60.88
2022-08-05T05:34:15.419Z,60.53
2022-08-05T05:36:44.206Z,60.34
2022-08-05T05:39:15.485Z,59.67
2022-08-05T05:41:54.488Z,59.22
2022-08-05T05:44:36.443Z,59.42
2022-08-05T05:47:13.163Z,59.19
2022-08-05T05:49:56.571Z,58.92
2022-08-05T05:52:29.813Z,58.54
2022-08-05T05:55:07.364Z,58.09
2022-08-05T05:57:52.031Z,57.92
2022-08-05T06:00:31.510Z,57.60
2022-08-05T06:03:03.603Z,57.32
2022-08-05T06:05:54.264Z,57.36
2022-08-05T06:08:32.241Z,56.93
2022-08-05T06:11:01.674Z,56.56
2022-08-05T06:13:40.527Z,56.42
2022-08-05T06:16:31.517Z,55.69
2022-08-05T06:19:01.985Z,54.92
2022-08-05T06:21:36.569Z,54.79
2022-08-05T06:24:11.518Z,54.44
2022-08-05T06:26:52.072Z,54.31
2022-08-05T06:29:23.697Z,53.63
2022-08-05T06:32:25.013Z,52.94
2022-08-05T06:34:57.099Z,52.50
2022-08-05T06:37:56.273Z,52.03
2022-08-05T06:40:21.111Z,51.89
2022-08-05T06:42:53.565Z,51.83
2022-08-05T06:45:55.483Z,51.37
2022-08-05T06:48:46.945Z,50.68
2022-08-05T06:51:00.402Z,50.47
2022-08-05T06:53:30.172Z,49.61
2022-08-05T06:56:25.650Z,49.73
2022-08-05T06:58:56.545Z,49.14
2022-08-05T07:01:32.092Z,48.53
2022-08-05T07:04:03.154Z,48.77
2022-08-05T07:06:32.288Z,48.19
2022-08-05T07:09:04.357Z,47.75
2022-08-05T07:11:36.920Z,47.61
2022-08-05T07:14:29.294Z,47.58
2022-08-05T07:18:01.163Z,47.05
2022-08-05T07:20:31.603Z,46.89
2022-08-05T07:22:43.930Z,46.23
2022-08-05T07:25:53.904Z,45.98
2022-08-05T07:28:08.209Z,45.91
2022-08-05T07:30:40.318Z,45.64
2022-08-05T07:33:15.730Z,44.71
2022-08-05T07:36:02.115Z,44.36
2022-08-05T07:38:43.217Z,44.16
2022-08-05T07:42:14.448Z,44.05
2022-08-05T07:44:25.912Z,43.44
2022-08-05T07:46:56.445Z,43.22
2022-08-05T07:49:28.637Z,42.73
2022-08-05T07:51:59.428Z,42.29
2022-08-05T07:54:33.652Z,42.21
2022-08-05T07:57:13.916Z,42.57
2022-08-05T07:59:55.278Z,41.50
2022-08-05T08:02:31.330Z,41.06
2022-08-05T08:05:19.954Z,40.87
2022-08-05T08:08:00.188Z,40.77
2022-08-05T08:10:34.978Z,40.25
2022-08-05T08:13:07.814Z,40.08
2022-08-05T08:16:34.532Z,39.88
2022-08-05T08:18:39.985Z,40.24
2022-08-05T08:21:17.433Z,39.94
2022-08-05T08:24:01.885Z,38.95
2022-08-05T08:26:33.708Z,39.27
2022-08-05T08:29:29.303Z,39.49
2022-08-05T08:31:57.269Z,39.54
2022-08-05T08:34:30.448Z,39.11
2022-08-05T08:37:07.073Z,38.88
2022-08-05T08:39:38.274Z,38.12
2022-08-05T08:42:33.690Z,38.27
2022-08-05T08:45:19.669Z,37.31
2022-08-05T08:48:11.757Z,36.23
2022-08-05T08:51:04.084Z,35.77
2022-08-05T08:53:45.027Z,34.81
2022-08-05T08:56:14.990Z,34.29
2022-08-05T08:58:47.682Z,33.98
2022-08-05T09:01:22.105Z,33.84
2022-08-05T09:03:57.576Z,33.94
2022-08-05T09:06:36.205Z,34.20
2022-08-05T09:09:06.478Z,33.77
2022-08-05T09:11:51.025Z,33.18
2022-08-05T09:14:56.816Z,32.83
2022-08-05T09:17:40.188Z,32.37
2022-08-05T09:20:05.950Z,31.69
2022-08-05T09:23:19.756Z,31.98
2022-08-05T09:26:02.375Z,31.34
2022-08-05T09:28:36.137Z,31.17
2022-08-05T09:31:44.192Z,31.45
2022-08-05T09:34:09.796Z,31.43
2022-08-05T09:36:54.954Z,31.09
2022-08-05T09:39:45.434Z,30.87
2022-08-05T09:42:24.002Z,30.81
2022-08-05T09:46:04.821Z,31.17
2022-08-05T09:47:56.752Z,31.52
2022-08-05T09:50:44.435Z,30.92
2022-08-05T09:53:23.074Z,29.92
2022-08-05T09:56:04.967Z,29.47
2022-08-05T09:58:42.011Z,29.32
2022-08-05T10:01:22.674Z,29.88
2022-08-05T10:04:12.663Z,28.74
2022-08-05T10:06:59.131Z,28.64
2022-08-05T10:09:29.878Z,28.98
2022-08-05T10:12:18.589Z,28.28
2022-08-05T10:15:21.046Z,27.95
2022-08-05T10:18:07.014Z,28.01
2022-08-05T10:20:41.924Z,28.47
2022-08-05T10:23:34.007Z,28.08
2022-08-05T10:26:07.366Z,28.01
2022-08-05T10:28:45.083Z,28.36
2022-08-05T10:32:55.160Z,28.25
2022-08-05T10:34:08.309Z,28.23
2022-08-05T10:36:39.803Z,27.80
2022-08-05T10:39:24.161Z,27.44
2022-08-05T10:42:08.239Z,26.41
2022-08-05T10:44:46.425Z,26.63
2022-08-05T10:47:26.289Z,26.54
2022-08-05T10:50:32.196Z,26.30
2022-08-05T10:53:00.551Z,27.13
2022-08-05T10:55:38.462Z,26.44
2022-08-05T10:58:20.942Z,26.68
2022-08-05T11:00:55.476Z,26.34
2022-08-05T11:03:31.732Z,25.65
2022-08-05T11:06:05.804Z,24.79
2022-08-05T11:08:39.350Z,24.87
2022-08-05T11:11:44.592Z,25.96
2022-08-05T11:14:56.343Z,25.21
2022-08-05T11:17:57.499Z,25.15
2022-08-05T11:20:33.099Z,25.41
2022-08-05T11:23:06.116Z,24.98
2022-08-05T11:26:05.971Z,24.54
2022-08-05T11:28:36.044Z,23.61
2022-08-05T11:31:07.790Z,23.75
2022-08-05T11:33:52.592Z,24.32
2022-08-05T11:36:42.736Z,24.60
2022-08-05T11:39:14.467Z,24.77
2022-08-05T11:42:00.632Z,24.18
2022-08-05T11:44:53.123Z,24.19
2022-08-05T11:47:48.683Z,24.49
2022-08-05T11:50:15.770Z,24.32
2022-08-05T11:52:46.137Z,23.87
2022-08-05T11:55:17.525Z,23.87
2022-08-05T11:58:09.999Z,23.97
2022-08-05T12:00:38.496Z,23.16
2022-08-05T12:03:42.116Z,23.82
2022-08-05T12:06:28.972Z,23.83
2022-08-05T12:09:00.694Z,22.55
2022-08-05T12:11:40.080Z,22.86
2022-08-05T12:14:10.824Z,22.64
2022-08-05T12:16:58.680Z,22.96
2022-08-05T12:20:25.469Z,22.94
2022-08-05T12:22:49.328Z,23.14
2022-08-05T12:25:23.691Z,23.65
2022-08-05T12:27:59.048Z,23.70
2022-08-05T12:30:39.175Z,23.06
2022-08-05T12:33:27.328Z,22.40
2022-08-05T12:35:58.163Z,23.12
2022-08-05T12:38:31.400Z,23.32
2022-08-05T12:41:00.944Z,23.28
2022-08-05T12:43:32.067Z,23.12
2022-08-05T12:46:06.791Z,23.22
2022-08-05T12:48:44.284Z,22.39
2022-08-05T12:52:10.643Z,22.13
2022-08-05T12:54:14.723Z,22.22
2022-08-05T12:57:09.562Z,22.43
2022-08-05T13:01:57.535Z,23.54
2022-08-05T13:02:50.874Z,23.40
2022-08-05T13:05:37.387Z,22.94
2022-08-05T13:08:08.659Z,22.38
2022-08-05T13:10:50.286Z,22.61
2022-08-05T13:14:04.667Z,23.44
2022-08-05T13:16:15.310Z,22.56
2022-08-05T13:18:57.883Z,22.10
2022-08-05T13:21:47.974Z,22.40
2022-08-05T13:24:27.624Z,22.50
2022-08-05T13:27:11.064Z,21.62
2022-08-05T13:30:32.664Z,21.38
2022-08-05T13:32:39.504Z,22.50
2022-08-05T13:35:12.203Z,23.38
2022-08-05T13:37:43.769Z,22.11
2022-08-05T13:40:35.595Z,22.48
2022-08-05T13:43:02.846Z,22.26
2022-08-05T13:45:38.518Z,22.38
2022-08-05T13:48:58.742Z,23.09
2022-08-05T13:51:12.240Z,23.60
2022-08-05T13:53:48.076Z,22.89
2022-08-05T13:56:18.407Z,23.16
2022-08-05T13:58:53.123Z,22.36
2022-08-05T14:01:27.413Z,22.77
2022-08-05T14:04:29.976Z,22.57
2022-08-05T14:07:25.179Z,23.05
2022-08-05T14:09:47.919Z,22.99
2022-08-05T14:12:32.159Z,22.69
2022-08-05T14:16:05.681Z,22.74
2022-08-05T14:17:55.036Z,23.23
2022-08-05T14:20:32.754Z,23.00
2022-08-05T14:23:01.964Z,22.98
2022-08-05T14:25:32.098Z,23.09
2022-08-05T14:28:00.571Z,23.00
2022-08-05T14:30:29.856Z,22.86
2022-08-05T14:32:59.064Z,22.91
2022-08-05T14:35:36.962Z,23.02
2022-08-05T14:38:31.787Z,23.48
2022-08-05T14:41:07.770Z,23.69
2022-08-05T14:43:59.127Z,23.52
2022-08-05T14:46:29.550Z,22.59
2022-08-05T14:49:07.000Z,22.17
2022-08-05T14:51:42.819Z,22.90
2022-08-05T14:54:27.892Z,23.28
2022-08-05T14:56:59.669Z,22.46
2022-08-05T14:59:35.705Z,22.80
2022-08-05T15:02:14.646Z,23.13
2022-08-05T15:04:47.783Z,23.15
2022-08-05T15:08:08.873Z,23.38
2022-08-05T15:10:09.710Z,23.06
2022-08-05T15:12:59.756Z,23.28
2022-08-05T15:15:55.434Z,23.84
2022-08-05T15:18:20.822Z,23.76
2022-08-05T15:20:50.913Z,23.59
2022-08-05T15:23:22.127Z,23.81
2022-08-05T15:25:56.613Z,23.68
2022-08-05T15:28:28.827Z,23.65
2022-08-05T15:31:00.431Z,23.10
2022-08-05T15:34:18.495Z,23.90
2022-08-05T15:36:24.606Z,24.27
2022-08-05T15:41:01.709Z,24.02
2022-08-05T15:41:58.420Z,25.27
2022-08-05T15:44:30.427Z,25.67
2022-08-05T15:47:02.050Z,25.12
2022-08-05T15:49:48.137Z,24.63
2022-08-05T15:52:29.545Z,24.31
2022-08-05T15:55:15.728Z,24.36
2022-08-05T15:57:49.073Z,25.00
2022-08-05T16:00:25.817Z,26.09
2022-08-05T16:03:04.756Z,25.88
2022-08-05T16:05:36.070Z,24.99
2022-08-05T16:08:16.037Z,25.05
2022-08-05T16:10:47.296Z,25.40
2022-08-05T16:13:23.595Z,24.92
2022-08-05T16:15:56.213Z,25.87
2022-08-05T16:18:31.058Z,25.68
2022-08-05T16:21:05.225Z,26.33
2022-08-05T16:23:53.796Z,27.08
2022-08-05T16:26:26.530Z,27.04
2022-08-05T16:28:56.663Z,27.91
2022-08-05T16:31:26.264Z,28.34
2022-08-05T16:34:25.231Z,29.27
2022-08-05T16:37:00.922Z,29.29
2022-08-05T16:40:04.484Z,29.51
2022-08-05T16:42:28.239Z,30.12
2022-08-05T16:45:01.177Z,31.04
2022-08-05T16:47:48.279Z,31.40
2022-08-05T16:50:33.062Z,32.42
2022-08-05T16:53:12.690Z,31.90
2022-08-05T16:55:54.156Z,32.40
2022-08-05T16:58:26.325Z,33.15
2022-08-05T17:00:55.585Z,33.49
2022-08-05T17:03:25.730Z,33.45
2022-08-05T17:05:59.729Z,34.18
2022-08-05T17:08:36.748Z,34.66
2022-08-05T17:11:26.770Z,33.54
2022-08-05T17:14:13.123Z,34.26
2022-08-05T17:16:53.383Z,35.01
2022-08-05T17:19:22.467Z,33.75
2022-08-05T17:21:51.509Z,34.47
2022-08-05T17:24:35.313Z,34.08
2022-08-05T17:27:09.425Z,33.37
2022-08-05T17:29:41.261Z,33.70
2022-08-05T17:32:17.048Z,34.44
2022-08-05T17:34:47.783Z,35.08
2022-08-05T17:37:40.721Z,36.30
2022-08-05T17:40:12.113Z,36.53
2022-08-05T17:42:51.282Z,36.96
2022-08-05T17:45:38.268Z,35.82
2022-08-05T17:48:08.285Z,34.82
2022-08-05T17:50:37.168Z,34.91
2022-08-05T17:53:08.423Z,34.44
2022-08-05T17:55:39.961Z,34.75
2022-08-05T17:58:12.648Z,34.25
2022-08-05T18:00:45.366Z,34.43
2022-08-05T18:03:48.459Z,34.85
2022-08-05T18:06:11.691Z,34.83
2022-08-05T18:08:52.462Z,35.46
2022-08-05T18:11:32.421Z,35.33
2022-08-05T18:14:06.575Z,35.39
2022-08-05T18:16:49.609Z,35.38
2022-08-05T18:19:30.048Z,35.85
2022-08-05T18:22:08.805Z,36.53
2022-08-05T18:24:53.719Z,36.97
2022-08-05T18:27:23.307Z,37.60
2022-08-05T18:29:54.767Z,37.89
2022-08-05T18:32:28.433Z,38.09
2022-08-05T18:34:58.613Z,38.22
2022-08-05T18:37:33.995Z,38.59
2022-08-05T18:41:49.926Z,38.70
2022-08-05T18:43:03.396Z,39.16
2022-08-05T18:45:41.511Z,39.32
2022-08-05T18:48:30.170Z,39.69
2022-08-05T18:52:05.820Z,39.94
2022-08-05T18:54:12.600Z,40.30
2022-08-05T18:56:41.802Z,40.56
2022-08-05T18:59:42.778Z,40.75
2022-08-05T19:02:36.606Z,40.98
2022-08-05T19:06:06.160Z,40.99
2022-08-05T19:07:58.416Z,41.42
2022-08-05T19:10:30.544Z,41.21
2022-08-05T19:12:59.287Z,41.84
2022-08-05T19:15:56.825Z,42.01
2022-08-05T19:18:22.209Z,42.21
2022-08-05T19:20:52.614Z,42.51
2022-08-05T19:24:07.245Z,42.82
2022-08-05T19:26:14.101Z,43.18
2022-08-05T19:28:43.827Z,43.34
2022-08-05T19:31:17.908Z,43.08
2022-08-05T19:33:56.312Z,42.38
2022-08-05T19:36:26.771Z,42.14
2022-08-05T19:39:00.748Z,42.13
2022-08-05T19:41:58.386Z,42.04
2022-08-05T19:44:19.870Z,42.14
2022-08-05T19:46:50.163Z,42.31
2022-08-05T19:49:19.197Z,42.57
2022-08-05T19:52:05.131Z,42.79
2022-08-05T19:54:37.578Z,42.99
2022-08-05T19:57:09.119Z,43.29
2022-08-05T19:59:59.564Z,43.45
2022-08-05T20:02:32.742Z,43.93
2022-08-05T20:05:05.222Z,44.05
2022-08-05T20:07:47.312Z,44.53
2022-08-05T20:10:22.140Z,44.45
2022-08-05T20:12:56.535Z,44.92
2022-08-05T20:15:52.407Z,45.15
2022-08-05T20:18:33.847Z,45.28
2022-08-05T20:21:06.708Z,45.34
2022-08-05T20:23:50.049Z,45.83
2022-08-05T20:26:28.352Z,46.12
2022-08-05T20:29:00.743Z,46.29
2022-08-05T20:31:41.967Z,46.58
2022-08-05T20:34:20.180Z,46.76
2022-08-05T20:36:50.115Z,47.01
2022-08-05T20:39:23.448Z,47.31
2022-08-05T20:41:55.031Z,47.45
2022-08-05T20:44:37.843Z,47.82
2022-08-05T20:47:07.846Z,47.90
2022-08-05T20:49:40.203Z,48.07
2022-08-05T20:52:12.486Z,48.08
2022-08-05T20:55:54.399Z,48.35
2022-08-05T20:57:43.009Z,48.43
2022-08-05T21:00:40.377Z,48.86
2022-08-05T21:07:19.614Z,49.80
2022-08-05T21:09:53.829Z,50.07
2022-08-05T21:12:26.689Z,50.29
2022-08-05T21:14:56.368Z,50.67
2022-08-05T21:17:28.505Z,51.99
2022-08-05T21:19:57.757Z,55.35
2022-08-05T21:22:28.643Z,58.91
2022-08-05T21:24:57.766Z,62.57
2022-08-05T21:27:27.293Z,64.40
2022-08-05T21:29:58.662Z,65.36
2022-08-05T21:32:32.186Z,66.66
2022-08-05T21:35:08.760Z,67.27
2022-08-05T21:37:53.443Z,68.04
2022-08-05T21:40:24.821Z,69.00
2022-08-05T21:42:54.535Z,69.48
2022-08-05T21:58:16.748Z,68.44
2022-08-05T22:00:51.222Z,68.86
2022-08-05T22:03:48.946Z,69.29
2022-08-05T22:06:10.139Z,69.81
2022-08-05T22:08:42.838Z,69.73
2022-08-05T22:11:15.891Z,69.81
2022-08-05T22:14:33.608Z,70.10
2022-08-05T22:18:58.511Z,69.61
2022-08-05T22:21:27.909Z,69.42
2022-08-05T22:24:40.593Z,69.24
2022-08-05T22:27:24.190Z,69.16
2022-08-05T22:30:17.196Z,68.77
2022-08-05T22:32:47.449Z,69.01
2022-08-05T22:35:20.347Z,68.71
2022-08-05T22:38:00.089Z,68.81
2022-08-05T22:40:30.636Z,68.70
2022-08-05T22:43:00.368Z,69.01
2022-08-05T22:45:32.282Z,68.68
2022-08-05T22:48:01.898Z,68.56
2022-08-05T22:50:30.785Z,68.63
2022-08-05T22:52:58.981Z,68.65
2022-08-05T22:55:27.758Z,68.56
2022-08-05T22:58:16.090Z,68.31
2022-08-05T23:00:56.970Z,68.61
2022-08-05T23:03:59.099Z,68.89
2022-08-05T23:06:13.912Z,68.92
2022-08-05T23:08:50.362Z,69.57
2022-08-05T23:11:21.345Z,69.51
2022-08-05T23:13:51.769Z,69.62
2022-08-05T23:16:44.042Z,70.23
2022-08-05T23:19:23.771Z,70.63
2022-08-05T23:21:54.852Z,70.67
2022-08-05T23:24:23.627Z,70.94
2022-08-05T23:26:52.509Z,71.11
2022-08-05T23:29:22.281Z,71.35
2022-08-05T23:31:56.566Z,71.64
2022-08-05T23:34:25.456Z,71.59
2022-08-05T23:36:54.798Z,71.72
2022-08-05T23:39:32.573Z,71.67
2022-08-05T23:42:24.366Z,71.69
2022-08-05T23:44:59.007Z,71.59
2022-08-05T23:47:28.263Z,71.75
2022-08-05T23:50:02.491Z,71.98
2022-08-05T23:52:49.829Z,71.90
2022-08-05T23:55:19.541Z,72.14
2022-08-05T23:57:51.374Z,72.28
